createdAt,value
2018-10-09T00:01:16.684Z,17.32
2018-10-09T00:03:46.808Z,16.35
2018-10-09T00:06:18.142Z,15.80
2018-10-09T00:08:49.372Z,16.42
2018-10-09T00:11:20.318Z,17.28
2018-10-09T00:13:50.937Z,15.76
2018-10-09T00:16:21.941Z,15.45
2018-10-09T00:18:52.527Z,15.85
2018-10-09T00:21:23.870Z,15.84
2018-10-09T00:23:54.739Z,15.25
2018-10-09T00:26:25.657Z,15.95
2018-10-09T00:28:56.420Z,15.30
2018-10-09T00:31:27.957Z,16.16
2018-10-09T00:33:58.617Z,16.27
2018-10-09T00:36:29.457Z,16.37
2018-10-09T00:39:00.625Z,16.30
2018-10-09T00:41:31.504Z,15.72
2018-10-09T00:44:02.680Z,15.64
2018-10-09T00:46:33.611Z,14.98
2018-10-09T00:49:04.396Z,16.07
2018-10-09T00:51:35.797Z,15.42
2018-10-09T00:54:06.603Z,14.78
2018-10-09T00:56:38.195Z,12.65
2018-10-09T00:59:09.111Z,13.18
2018-10-09T01:01:41.772Z,13.40
2018-10-09T01:04:12.890Z,12.73
2018-10-09T01:06:43.922Z,12.40
2018-10-09T01:09:14.370Z,12.47
2018-10-09T01:11:45.123Z,12.23
2018-10-09T01:14:16.889Z,13.87
2018-10-09T01:16:47.503Z,14.33
2018-10-09T01:19:17.264Z,14.77
2018-10-09T01:21:47.800Z,14.50
2018-10-09T01:24:18.728Z,15.25
2018-10-09T01:26:49.513Z,13.72
2018-10-09T01:29:21.184Z,15.56
2018-10-09T01:31:51.684Z,13.38
2018-10-09T01:34:23.040Z,14.10
2018-10-09T01:36:53.608Z,15.20
2018-10-09T01:39:24.616Z,14.85
2018-10-09T01:41:57.170Z,14.90
2018-10-09T01:44:27.641Z,16.45
2018-10-09T01:46:57.695Z,16.83
2018-10-09T01:49:28.692Z,15.18
2018-10-09T01:51:59.447Z,15.55
2018-10-09T01:54:30.744Z,15.74
2018-10-09T01:57:01.541Z,16.25
2018-10-09T01:59:32.768Z,15.78
2018-10-09T02:02:03.600Z,16.07
2018-10-09T02:04:34.561Z,15.88
2018-10-09T02:07:05.740Z,15.88
2018-10-09T02:09:36.636Z,14.93
2018-10-09T02:12:07.668Z,15.88
2018-10-09T02:14:38.587Z,14.25
2018-10-09T02:17:09.448Z,15.38
2018-10-09T02:19:40.818Z,15.82
2018-10-09T02:22:11.504Z,15.03
2018-10-09T02:24:42.884Z,14.84
2018-10-09T02:27:13.596Z,15.72
2018-10-09T02:29:44.471Z,15.58
2018-10-09T02:32:15.579Z,13.82
2018-10-09T02:34:46.478Z,14.83
2018-10-09T02:37:17.632Z,13.74
2018-10-09T02:39:48.484Z,13.50
2018-10-09T02:42:19.654Z,15.90
2018-10-09T02:44:50.908Z,13.58
2018-10-09T02:47:21.784Z,13.65
2018-10-09T02:49:52.659Z,14.63
2018-10-09T02:52:24.313Z,14.00
2018-10-09T02:54:54.752Z,17.52
2018-10-09T02:57:25.431Z,26.20
2018-10-09T02:59:56.809Z,25.90
2018-10-09T03:02:27.820Z,35.88
2018-10-09T03:04:58.636Z,20.88
2018-10-09T03:07:29.400Z,17.42
2018-10-09T03:10:00.892Z,16.30
2018-10-09T03:12:31.543Z,16.80
2018-10-09T03:15:02.418Z,17.37
2018-10-09T03:17:33.623Z,16.26
2018-10-09T03:20:06.056Z,14.94
2018-10-09T03:22:36.085Z,15.03
2018-10-09T03:25:07.157Z,15.68
2018-10-09T03:27:37.696Z,15.32
2018-10-09T03:30:10.372Z,15.70
2018-10-09T03:32:40.432Z,16.02
2018-10-09T03:35:10.669Z,16.40
2018-10-09T03:37:41.520Z,14.58
2018-10-09T03:40:12.325Z,15.13
2018-10-09T03:42:43.803Z,15.54
2018-10-09T03:45:14.561Z,16.30
2018-10-09T03:47:45.736Z,16.67
2018-10-09T03:50:16.505Z,17.25
2018-10-09T03:52:47.405Z,16.90
2018-10-09T03:55:18.680Z,16.42
2018-10-09T03:57:49.579Z,17.57
2018-10-09T04:00:20.488Z,17.35
2018-10-09T04:02:51.780Z,19.10
2018-10-09T04:05:22.528Z,18.20
2018-10-09T04:07:53.909Z,17.85
2018-10-09T04:10:24.560Z,18.95
2018-10-09T04:12:55.392Z,19.45
2018-10-09T04:15:26.593Z,20.56
2018-10-09T04:17:57.753Z,21.12
2018-10-09T04:20:28.517Z,19.45
2018-10-09T04:22:59.443Z,18.10
2018-10-09T04:25:30.747Z,19.40
2018-10-09T04:28:01.563Z,19.37
2018-10-09T04:30:32.359Z,19.57
2018-10-09T04:33:03.732Z,19.60
2018-10-09T04:35:34.520Z,20.57
2018-10-09T04:38:05.580Z,20.88
2018-10-09T04:40:36.335Z,20.88
2018-10-09T04:43:07.757Z,20.78
2018-10-09T04:45:38.484Z,19.17
2018-10-09T04:48:09.680Z,19.42
2018-10-09T04:50:40.599Z,18.57
2018-10-09T04:53:11.736Z,18.15
2018-10-09T04:55:42.565Z,19.82
2018-10-09T04:58:13.544Z,21.37
2018-10-09T05:00:44.754Z,21.24
2018-10-09T05:03:15.644Z,21.93
2018-10-09T05:05:46.434Z,22.30
2018-10-09T05:08:17.749Z,22.80
2018-10-09T05:10:48.568Z,22.85
2018-10-09T05:13:19.620Z,22.35
2018-10-09T05:15:50.444Z,23.25
2018-10-09T05:18:21.811Z,23.70
2018-10-09T05:20:52.583Z,26.42
2018-10-09T05:23:23.594Z,26.15
2018-10-09T05:25:54.662Z,25.68
2018-10-09T05:28:25.574Z,24.70
2018-10-09T05:30:56.365Z,23.95
2018-10-09T05:33:27.740Z,23.77
2018-10-09T05:35:58.547Z,24.18
2018-10-09T05:38:29.920Z,25.08
2018-10-09T05:41:00.852Z,25.88
2018-10-09T05:43:31.868Z,25.62
2018-10-09T05:46:02.627Z,25.88
2018-10-09T05:48:33.380Z,25.95
2018-10-09T05:51:04.720Z,24.98
2018-10-09T05:53:35.560Z,25.55
2018-10-09T05:56:06.355Z,25.65
2018-10-09T05:58:37.641Z,27.00
2018-10-09T06:01:08.623Z,25.88
2018-10-09T06:03:39.452Z,27.73
2018-10-09T06:06:10.590Z,29.30
2018-10-09T06:08:41.512Z,31.07
2018-10-09T06:11:12.255Z,28.92
2018-10-09T06:13:43.802Z,29.00
2018-10-09T06:16:14.561Z,28.92
2018-10-09T06:18:47.459Z,29.16
2018-10-09T06:21:17.508Z,30.05
2018-10-09T06:23:47.747Z,30.77
2018-10-09T06:26:18.670Z,30.55
2018-10-09T06:28:49.453Z,31.35
2018-10-09T06:31:21.223Z,30.20
2018-10-09T06:33:51.666Z,29.78
2018-10-09T06:36:22.555Z,30.08
2018-10-09T06:38:53.296Z,33.08
2018-10-09T06:41:24.701Z,34.44
2018-10-09T06:43:55.620Z,35.10
2018-10-09T06:46:26.561Z,36.33
2018-10-09T06:48:57.365Z,35.48
2018-10-09T06:51:28.857Z,34.30
2018-10-09T06:54:07.920Z,34.35
2018-10-09T06:56:40.000Z,33.15
2018-10-09T06:59:10.009Z,34.43
2018-10-09T07:01:40.582Z,33.67
2018-10-09T07:04:10.631Z,34.83
2018-10-09T07:06:40.734Z,38.45
2018-10-09T07:09:12.189Z,41.33
2018-10-09T07:11:42.577Z,40.73
2018-10-09T07:14:13.050Z,43.40
2018-10-09T07:16:43.305Z,42.00
2018-10-09T07:19:13.456Z,42.60
2018-10-09T07:21:43.701Z,43.53
2018-10-09T07:24:13.797Z,45.12
2018-10-09T07:26:43.952Z,42.95
2018-10-09T07:29:14.044Z,44.65
2018-10-09T07:31:44.736Z,44.85
2018-10-09T07:34:15.522Z,46.13
2018-10-09T07:36:46.800Z,46.06
2018-10-09T07:39:17.618Z,43.98
2018-10-09T07:41:48.580Z,45.88
2018-10-09T07:44:19.374Z,45.67
2018-10-09T07:46:50.493Z,43.75
2018-10-09T07:49:21.538Z,42.30
2018-10-09T07:51:52.765Z,43.42
2018-10-09T07:54:24.734Z,42.78
2018-10-09T07:56:54.828Z,43.25
2018-10-09T07:59:25.902Z,43.80
2018-10-09T08:01:56.806Z,44.53
2018-10-09T08:04:27.609Z,42.83
2018-10-09T08:06:58.539Z,41.77
2018-10-09T08:09:29.717Z,44.74
2018-10-09T08:12:00.652Z,41.50
2018-10-09T08:14:31.490Z,41.30
2018-10-09T08:17:03.026Z,39.80
2018-10-09T08:19:33.605Z,40.98
2018-10-09T08:22:04.537Z,39.95
2018-10-09T08:24:35.393Z,41.18
2018-10-09T08:27:07.707Z,42.46
2018-10-09T08:29:37.559Z,43.25
2018-10-09T08:32:08.528Z,46.30
2018-10-09T08:34:39.759Z,47.50
2018-10-09T08:37:11.198Z,45.10
2018-10-09T08:39:42.007Z,44.35
2018-10-09T08:42:12.744Z,43.38
2018-10-09T08:44:43.778Z,42.03
2018-10-09T08:47:15.498Z,44.48
2018-10-09T08:49:45.393Z,41.20
2018-10-09T08:52:16.898Z,43.04
2018-10-09T08:54:47.710Z,37.98
2018-10-09T08:57:18.734Z,36.45
2018-10-09T08:59:49.652Z,36.42
2018-10-09T09:02:20.762Z,37.50
2018-10-09T09:04:51.723Z,37.83
2018-10-09T09:07:22.745Z,37.95
2018-10-09T09:09:53.589Z,35.55
2018-10-09T09:12:24.594Z,34.67
2018-10-09T09:14:55.476Z,36.85
2018-10-09T09:17:26.450Z,34.88
2018-10-09T09:19:57.912Z,35.04
2018-10-09T09:22:28.690Z,34.73
2018-10-09T09:24:59.489Z,34.55
2018-10-09T09:27:31.231Z,31.20
2018-10-09T09:30:01.783Z,32.86
2018-10-09T09:32:32.708Z,33.98
2018-10-09T09:35:03.596Z,35.38
2018-10-09T09:37:34.727Z,32.33
2018-10-09T09:40:05.855Z,34.73
2018-10-09T09:42:36.792Z,33.83
2018-10-09T09:45:07.870Z,34.50
2018-10-09T09:47:38.988Z,33.88
2018-10-09T09:50:09.688Z,32.38
2018-10-09T09:52:40.611Z,31.00
2018-10-09T09:55:11.467Z,30.88
2018-10-09T09:57:42.657Z,30.70
2018-10-09T10:00:18.630Z,33.83
2018-10-09T10:02:48.548Z,33.02
2018-10-09T10:05:18.452Z,29.40
2018-10-09T10:07:48.385Z,24.00
2018-10-09T10:10:18.336Z,18.40
2018-10-09T10:12:48.913Z,26.22
2018-10-09T10:15:19.830Z,28.07
2018-10-09T10:17:50.697Z,28.40
2018-10-09T10:20:21.645Z,29.60
2018-10-09T10:22:53.563Z,28.57
2018-10-09T10:25:23.574Z,28.70
2018-10-09T10:27:54.503Z,29.87
2018-10-09T10:30:25.580Z,28.60
2018-10-09T10:32:56.477Z,24.57
2018-10-09T10:35:27.895Z,25.04
2018-10-09T10:37:58.617Z,23.95
2018-10-09T10:40:29.648Z,23.70
2018-10-09T10:43:00.502Z,26.12
2018-10-09T10:45:31.526Z,25.70
2018-10-09T10:48:02.534Z,28.60
2018-10-09T10:50:33.629Z,28.05
2018-10-09T10:53:04.600Z,28.67
2018-10-09T10:55:35.518Z,28.15
2018-10-09T10:58:07.100Z,27.86
2018-10-09T11:00:37.750Z,25.35
2018-10-09T11:03:08.658Z,25.50
2018-10-09T11:05:39.601Z,24.15
2018-10-09T11:08:10.481Z,21.90
2018-10-09T11:10:41.684Z,21.97
2018-10-09T11:13:12.849Z,21.17
2018-10-09T11:15:43.732Z,20.45
2018-10-09T11:18:14.741Z,22.35
2018-10-09T11:20:45.682Z,21.05
2018-10-09T11:23:16.705Z,21.35
2018-10-09T11:25:47.603Z,21.25
2018-10-09T11:28:18.696Z,18.82
2018-10-09T11:30:49.861Z,17.98
2018-10-09T11:33:21.213Z,18.42
2018-10-09T11:35:52.017Z,17.20
2018-10-09T11:38:22.674Z,16.82
2018-10-09T11:40:53.730Z,15.88
2018-10-09T11:43:24.692Z,14.03
2018-10-09T11:45:55.818Z,14.60
2018-10-09T11:48:26.674Z,14.95
2018-10-09T11:50:58.553Z,14.35
2018-10-09T11:53:28.477Z,13.30
2018-10-09T11:55:59.921Z,13.50
2018-10-09T11:58:30.770Z,13.35
2018-10-09T12:01:04.626Z,12.75
2018-10-09T12:03:34.514Z,11.35
2018-10-09T12:06:04.484Z,11.70
2018-10-09T12:08:34.557Z,11.17
2018-10-09T12:11:04.655Z,11.67
2018-10-09T12:13:35.597Z,10.85
2018-10-09T12:16:06.756Z,10.58
2018-10-09T12:18:37.768Z,11.48
2018-10-09T12:21:08.736Z,11.20
2018-10-09T12:23:39.805Z,12.07
2018-10-09T12:26:11.754Z,11.12
2018-10-09T12:28:41.997Z,10.57
2018-10-09T12:31:12.980Z,9.83
2018-10-09T12:33:43.906Z,9.08
2018-10-09T12:36:14.637Z,10.28
2018-10-09T12:38:45.582Z,9.33
2018-10-09T12:41:16.441Z,9.20
2018-10-09T12:43:47.559Z,9.18
2018-10-09T12:46:18.541Z,9.63
2018-10-09T12:48:49.712Z,9.25
2018-10-09T12:51:20.556Z,9.28
2018-10-09T12:53:51.541Z,8.65
2018-10-09T12:56:22.400Z,8.73
2018-10-09T12:58:53.863Z,9.46
2018-10-09T13:01:24.758Z,10.32
2018-10-09T13:03:55.794Z,10.18
2018-10-09T13:06:26.660Z,10.60
2018-10-09T13:08:58.838Z,9.38
2018-10-09T13:11:28.775Z,9.03
2018-10-09T13:13:59.793Z,8.55
2018-10-09T13:16:30.638Z,9.00
2018-10-09T13:19:01.685Z,9.63
2018-10-09T13:21:33.648Z,8.98
2018-10-09T13:24:03.471Z,8.75
2018-10-09T13:26:34.375Z,8.93
2018-10-09T13:29:06.041Z,9.08
2018-10-09T13:31:36.677Z,9.08
2018-10-09T13:34:07.836Z,9.00
2018-10-09T13:36:38.661Z,8.85
2018-10-09T13:39:09.990Z,8.15
2018-10-09T13:41:40.699Z,8.00
2018-10-09T13:44:11.801Z,8.45
2018-10-09T13:46:42.728Z,9.38
2018-10-09T13:49:13.759Z,7.92
2018-10-09T13:51:44.780Z,8.05
2018-10-09T13:54:15.782Z,7.65
2018-10-09T13:56:46.689Z,8.50
2018-10-09T13:59:18.120Z,7.95
2018-10-09T14:01:48.655Z,7.45
2018-10-09T14:04:19.525Z,7.62
2018-10-09T14:06:50.450Z,8.28
2018-10-09T14:09:22.966Z,7.74
2018-10-09T14:11:54.066Z,7.93
2018-10-09T14:14:24.130Z,8.20
2018-10-09T14:16:55.068Z,8.18
2018-10-09T14:19:27.239Z,7.53
2018-10-09T14:21:57.260Z,7.67
2018-10-09T14:24:28.384Z,7.90
2018-10-09T14:26:58.707Z,8.13
2018-10-09T14:29:29.787Z,8.85
2018-10-09T14:32:00.642Z,8.30
2018-10-09T14:34:31.562Z,8.45
2018-10-09T14:37:02.374Z,8.63
2018-10-09T14:39:33.828Z,8.04
2018-10-09T14:42:04.938Z,8.13
2018-10-09T14:44:35.809Z,8.65
2018-10-09T14:47:06.633Z,7.30
2018-10-09T14:49:37.637Z,7.87
2018-10-09T14:52:08.763Z,7.30
2018-10-09T14:54:40.021Z,7.40
2018-10-09T14:57:10.622Z,7.80
2018-10-09T14:59:41.525Z,7.62
2018-10-09T15:02:12.486Z,8.18
2018-10-09T15:04:43.509Z,7.28
2018-10-09T15:07:14.432Z,7.20
2018-10-09T15:09:45.499Z,7.72
2018-10-09T15:12:16.413Z,7.60
2018-10-09T15:14:47.496Z,7.80
2018-10-09T15:17:18.386Z,7.22
2018-10-09T15:19:49.427Z,7.03
2018-10-09T15:22:20.405Z,8.13
2018-10-09T15:24:52.021Z,7.88
2018-10-09T15:27:22.841Z,8.85
2018-10-09T15:29:53.958Z,9.20
2018-10-09T15:32:24.718Z,10.75
2018-10-09T15:34:55.818Z,11.15
2018-10-09T15:37:26.683Z,11.18
2018-10-09T15:39:58.526Z,11.55
2018-10-09T15:42:28.353Z,12.40
2018-10-09T15:44:59.967Z,11.26
2018-10-09T15:47:30.949Z,11.43
2018-10-09T15:50:02.134Z,10.72
2018-10-09T15:52:32.840Z,10.65
2018-10-09T15:55:03.744Z,11.00
2018-10-09T15:57:34.673Z,12.78
2018-10-09T16:00:05.976Z,12.25
2018-10-09T16:02:37.451Z,12.10
2018-10-09T16:05:08.008Z,12.60
2018-10-09T16:07:39.698Z,14.75
2018-10-09T16:10:09.773Z,16.20
2018-10-09T16:12:40.685Z,14.38
2018-10-09T16:15:11.687Z,16.82
2018-10-09T16:17:42.565Z,15.38
2018-10-09T16:20:13.537Z,16.65
2018-10-09T16:22:44.382Z,18.40
2018-10-09T16:25:16.032Z,17.72
2018-10-09T16:27:46.698Z,21.07
2018-10-09T16:30:18.162Z,21.97
2018-10-09T16:32:49.418Z,36.18
2018-10-09T16:35:19.592Z,27.35
2018-10-09T16:37:50.527Z,22.30
2018-10-09T16:40:21.533Z,38.60
2018-10-09T16:42:52.394Z,41.58
2018-10-09T16:45:24.112Z,28.58
2018-10-09T16:47:54.780Z,37.98
2018-10-09T16:50:25.730Z,38.48
2018-10-09T16:52:56.608Z,34.08
2018-10-09T16:55:27.686Z,31.97
2018-10-09T16:57:58.531Z,26.82
2018-10-09T17:00:31.155Z,27.37
2018-10-09T17:03:01.364Z,26.90
2018-10-09T17:05:31.943Z,39.10
2018-10-09T17:08:02.620Z,32.00
2018-10-09T17:10:33.685Z,37.80
2018-10-09T17:13:04.624Z,33.70
2018-10-09T17:15:35.560Z,31.25
2018-10-09T17:18:06.768Z,39.88
2018-10-09T17:20:37.810Z,38.40
2018-10-09T17:23:09.217Z,36.08
2018-10-09T17:25:39.848Z,29.14
2018-10-09T17:28:10.715Z,26.40
2018-10-09T17:30:41.780Z,31.10
2018-10-09T17:33:12.758Z,33.30
2018-10-09T17:35:42.875Z,34.60
2018-10-09T17:38:15.343Z,34.98
2018-10-09T17:40:45.374Z,44.47
2018-10-09T17:43:15.710Z,61.90
2018-10-09T17:45:46.736Z,98.35
2018-10-09T17:48:17.672Z,63.73
2018-10-09T17:50:48.840Z,49.42
2018-10-09T17:53:19.780Z,44.42
2018-10-09T17:55:50.778Z,48.58
2018-10-09T17:58:21.720Z,71.05
2018-10-09T18:00:52.863Z,92.30
2018-10-09T18:03:24.094Z,84.20
2018-10-09T18:05:54.982Z,90.98
2018-10-09T18:08:25.707Z,81.63
2018-10-09T18:10:58.964Z,69.35
2018-10-09T18:13:31.054Z,67.87
2018-10-09T18:16:01.046Z,81.33
2018-10-09T18:18:32.452Z,97.70
2018-10-09T18:21:10.110Z,159.47
2018-10-09T18:23:40.486Z,214.02
2018-10-09T18:26:10.463Z,254.03
2018-10-09T18:28:40.394Z,226.07
2018-10-09T18:31:10.457Z,179.90
2018-10-09T18:33:40.294Z,131.93
2018-10-09T18:36:10.378Z,92.23
2018-10-09T18:38:42.132Z,64.40
2018-10-09T18:41:12.452Z,51.40
2018-10-09T18:43:43.455Z,44.83
2018-10-09T18:46:14.678Z,40.55
2018-10-09T18:48:45.041Z,39.10
2018-10-09T18:51:14.958Z,40.23
2018-10-09T18:53:47.994Z,37.37
2018-10-09T18:56:18.485Z,36.20
2018-10-09T18:58:52.109Z,33.15
2018-10-09T19:01:22.202Z,31.10
2018-10-09T19:03:52.242Z,30.60
2018-10-09T19:06:24.234Z,35.40
2018-10-09T19:08:54.802Z,53.37
2018-10-09T19:11:26.546Z,54.60
2018-10-09T19:13:57.645Z,47.83
2018-10-09T19:16:27.743Z,49.03
2018-10-09T19:18:57.659Z,52.75
2018-10-09T19:21:28.407Z,50.83
2018-10-09T19:23:58.704Z,48.25
2018-10-09T19:26:29.011Z,48.70
2018-10-09T19:28:59.754Z,52.43
2018-10-09T19:31:30.011Z,56.37
2018-10-09T19:34:00.113Z,55.37
2018-10-09T19:36:31.033Z,54.50
2018-10-09T19:39:01.868Z,60.92
2018-10-09T19:41:33.369Z,74.15
2018-10-09T19:44:03.504Z,105.10
2018-10-09T19:46:35.298Z,133.16
2018-10-09T19:49:05.773Z,123.13
2018-10-09T19:51:37.010Z,87.02
2018-10-09T19:54:14.815Z,68.85
2018-10-09T19:56:44.995Z,59.73
2018-10-09T19:59:15.778Z,60.80
2018-10-09T20:01:45.915Z,48.70
2018-10-09T20:04:16.094Z,43.40
2018-10-09T20:06:46.699Z,44.75
2018-10-09T20:09:16.622Z,42.87
2018-10-09T20:11:46.591Z,43.43
2018-10-09T20:14:16.843Z,41.30
2018-10-09T20:16:46.990Z,41.63
2018-10-09T20:19:17.721Z,41.75
2018-10-09T20:21:48.647Z,41.13
2018-10-09T20:24:19.834Z,42.20
2018-10-09T20:26:50.730Z,41.77
2018-10-09T20:29:22.163Z,41.37
2018-10-09T20:31:53.002Z,41.65
2018-10-09T20:34:23.838Z,40.23
2018-10-09T20:36:54.930Z,39.55
2018-10-09T20:39:26.122Z,38.38
2018-10-09T20:41:56.980Z,40.00
2018-10-09T20:44:27.855Z,39.75
2018-10-09T20:46:58.846Z,43.58
2018-10-09T20:49:31.076Z,44.44
2018-10-09T20:52:00.947Z,53.43
2018-10-09T20:54:31.915Z,59.55
2018-10-09T20:57:02.747Z,66.50
2018-10-09T20:59:34.049Z,63.02
2018-10-09T21:02:04.721Z,59.40
2018-10-09T21:04:35.737Z,56.85
2018-10-09T21:07:07.021Z,56.10
2018-10-09T21:09:38.027Z,56.85
2018-10-09T21:12:08.838Z,54.45
2018-10-09T21:14:39.814Z,49.55
2018-10-09T21:17:10.683Z,50.63
2018-10-09T21:19:41.649Z,48.90
2018-10-09T21:22:12.526Z,42.27
2018-10-09T21:24:43.984Z,42.33
2018-10-09T21:27:14.673Z,40.43
2018-10-09T21:29:45.835Z,39.33
2018-10-09T21:32:17.707Z,38.85
2018-10-09T21:34:47.683Z,37.75
2018-10-09T21:37:18.586Z,41.33
2018-10-09T21:39:49.576Z,41.42
2018-10-09T21:42:22.126Z,41.17
2018-10-09T21:44:52.310Z,39.27
2018-10-09T21:47:23.633Z,39.78
2018-10-09T21:49:53.942Z,38.13
2018-10-09T21:52:24.650Z,39.33
2018-10-09T21:54:55.733Z,39.75
2018-10-09T21:57:26.974Z,42.70
2018-10-09T21:59:57.825Z,46.68
2018-10-09T22:02:28.979Z,48.58
2018-10-09T22:04:59.622Z,51.28
2018-10-09T22:07:30.648Z,50.78
2018-10-09T22:10:01.783Z,45.03
2018-10-09T22:12:32.901Z,43.95
2018-10-09T22:15:03.662Z,40.88
2018-10-09T22:17:34.799Z,38.50
2018-10-09T22:20:06.094Z,39.65
2018-10-09T22:22:36.768Z,39.70
2018-10-09T22:25:07.854Z,40.08
2018-10-09T22:27:38.830Z,39.13
2018-10-09T22:30:10.329Z,39.00
2018-10-09T22:32:40.799Z,36.73
2018-10-09T22:35:11.803Z,36.20
2018-10-09T22:37:42.749Z,35.30
2018-10-09T22:40:13.732Z,34.48
2018-10-09T22:42:44.645Z,37.48
2018-10-09T22:45:15.819Z,35.33
2018-10-09T22:47:46.859Z,33.88
2018-10-09T22:50:18.039Z,30.70
2018-10-09T22:52:48.874Z,30.27
2018-10-09T22:55:19.875Z,30.50
2018-10-09T22:57:51.339Z,30.25
2018-10-09T23:00:22.139Z,30.76
2018-10-09T23:02:52.761Z,31.40
2018-10-09T23:05:23.815Z,30.10
2018-10-09T23:07:54.647Z,30.20
2018-10-09T23:10:25.709Z,29.57
2018-10-09T23:12:56.509Z,30.10
2018-10-09T23:15:27.839Z,30.62
2018-10-09T23:17:58.621Z,31.10
2018-10-09T23:20:29.656Z,29.95
2018-10-09T23:23:00.610Z,29.45
2018-10-09T23:25:32.035Z,28.47
2018-10-09T23:28:02.904Z,26.87
2018-10-09T23:30:34.420Z,26.73
2018-10-09T23:33:05.125Z,27.77
2018-10-09T23:35:36.221Z,27.95
2018-10-09T23:38:08.718Z,28.40
2018-10-09T23:40:38.653Z,27.65
2018-10-09T23:43:08.576Z,30.65
2018-10-09T23:45:39.742Z,30.32
2018-10-09T23:48:11.320Z,30.12
2018-10-09T23:50:42.744Z,30.10
2018-10-09T23:53:12.696Z,30.35
2018-10-09T23:55:43.636Z,30.57
2018-10-09T23:58:14.537Z,31.68
